Time;durP1;ratioP1;P1;durP2;ratioP2;P2;SDS_P1;SDS_P2;PMS_P1;PMS_P2;Temp;Humidity;BMP_temperature;BMP_pressure;BME280_temperature;BME280_humidity;BME280_pressure;Samples;Min_cycle;Max_cycle;Signal;HPM_P1;HPM_P2
2023/04/14 00:00:17;;;;;;;11.52;2.13;;;;;;;3.86;100.00;100910.34;5031498;28;20556;-82
2023/04/14 00:02:43;;;;;;;7.82;1.98;;;;;;;3.87;100.00;100905.94;5031841;28;20040;-82
2023/04/14 00:05:09;;;;;;;10.40;2.42;;;;;;;3.87;100.00;100904.16;5031352;28;20363;-81
2023/04/14 00:07:34;;;;;;;15.27;2.28;;;;;;;3.87;100.00;100911.22;5030241;28;20037;-82
2023/04/14 00:09:59;;;;;;;17.45;3.25;;;;;;;3.81;100.00;100898.44;5030017;28;20029;-83
2023/04/14 00:12:25;;;;;;;9.70;2.22;;;;;;;3.76;100.00;100903.09;5030130;28;20034;-83
2023/04/14 00:14:50;;;;;;;14.93;2.42;;;;;;;3.72;100.00;100907.72;5013754;28;20060;-82
2023/04/14 00:17:16;;;;;;;8.48;2.03;;;;;;;3.67;100.00;100908.00;5013812;28;20048;-82
2023/04/14 00:19:41;;;;;;;12.18;2.20;;;;;;;3.60;100.00;100904.03;5030497;28;20056;-82
2023/04/14 00:22:07;;;;;;;8.80;2.05;;;;;;;3.50;100.00;100901.09;5031567;28;20116;-82
2023/04/14 00:24:39;;;;;;;15.13;2.70;;;;;;;3.43;100.00;100907.66;5029928;28;20095;-82
2023/04/14 00:27:05;;;;;;;14.25;2.50;;;;;;;3.37;100.00;100922.97;5031729;28;20060;-82
2023/04/14 00:29:30;;;;;;;6.93;2.15;;;;;;;3.30;100.00;100914.59;5031468;28;20029;-82
2023/04/14 00:31:56;;;;;;;8.85;2.55;;;;;;;3.30;100.00;100917.22;5030030;28;20053;-82
2023/04/14 00:34:21;;;;;;;11.50;2.53;;;;;;;3.31;100.00;100913.66;5030032;28;20057;-83
2023/04/14 00:36:46;;;;;;;13.88;2.33;;;;;;;3.35;100.00;100905.50;5030263;28;20405;-82
2023/04/14 00:39:12;;;;;;;13.10;2.30;;;;;;;3.38;100.00;100911.53;5013632;28;20038;-83
2023/04/14 00:41:37;;;;;;;12.38;2.80;;;;;;;3.34;100.00;100914.34;5031779;28;20143;-82
2023/04/14 00:44:03;;;;;;;8.77;2.42;;;;;;;3.33;100.00;100917.91;5034642;28;20052;-83
2023/04/14 00:46:29;;;;;;;10.75;2.30;;;;;;;3.33;100.00;100914.44;5036067;28;20152;-83
2023/04/14 00:48:55;;;;;;;16.40;2.13;;;;;;;3.29;100.00;100921.66;5035652;28;20036;-82
2023/04/14 00:51:21;;;;;;;7.32;2.42;;;;;;;3.21;100.00;100923.91;5034806;28;20040;-84
2023/04/14 00:53:48;;;;;;;15.82;2.22;;;;;;;3.15;100.00;100916.34;5036633;28;20033;-83
2023/04/14 00:56:13;;;;;;;12.30;2.50;;;;;;;3.09;100.00;100917.56;5035053;28;20034;-83
2023/04/14 00:58:40;;;;;;;6.72;1.98;;;;;;;3.02;100.00;100916.22;5035085;28;20360;-83
2023/04/14 01:01:07;;;;;;;10.68;2.47;;;;;;;3.00;100.00;100920.69;5035740;28;20072;-83
2023/04/14 01:03:35;;;;;;;7.95;1.70;;;;;;;3.02;100.00;100925.91;5035514;28;20055;-84
2023/04/14 01:06:01;;;;;;;8.60;2.00;;;;;;;3.00;100.00;100923.31;5033498;28;20132;-82
2023/04/14 01:08:27;;;;;;;11.98;2.20;;;;;;;2.97;100.00;100932.25;5034980;28;20060;-82
2023/04/14 01:11:21;;;;;;;11.73;2.58;;;;;;;2.93;100.00;100930.72;5033393;28;20033;-83
2023/04/14 01:14:09;;;;;;;10.80;2.15;;;;;;;2.93;100.00;100935.16;5035079;28;20033;-83
2023/04/14 01:16:41;;;;;;;8.88;2.33;;;;;;;2.94;100.00;100940.31;5034843;28;20033;-84
2023/04/14 01:19:43;;;;;;;10.88;2.30;;;;;;;2.96;100.00;100937.59;5033755;28;20494;-82
2023/04/14 01:22:10;;;;;;;10.73;2.17;;;;;;;2.96;100.00;100941.06;5035020;28;20029;-82
2023/04/14 01:24:38;;;;;;;14.88;1.90;;;;;;;2.95;100.00;100933.28;5035160;28;20033;-83
2023/04/14 01:27:23;;;;;;;11.98;1.85;;;;;;;2.92;100.00;100931.66;5035178;28;20120;-83
2023/04/14 01:30:07;;;;;;;10.73;1.80;;;;;;;2.89;100.00;100928.38;5033918;28;20033;-83
2023/04/14 01:32:38;;;;;;;12.95;2.17;;;;;;;2.88;100.00;100932.78;5034891;28;20066;-83
2023/04/14 01:35:11;;;;;;;10.27;2.53;;;;;;;2.93;100.00;100929.91;5033445;28;20128;-82
2023/04/14 01:37:46;;;;;;;7.68;1.55;;;;;;;2.99;100.00;100932.16;5033687;28;20030;-82
2023/04/14 01:40:16;;;;;;;16.90;1.83;;;;;;;3.05;100.00;100933.59;5033520;28;20034;-83
2023/04/14 01:42:46;;;;;;;11.82;1.65;;;;;;;3.05;100.00;100923.94;5032273;28;20104;-82
2023/04/14 01:45:22;;;;;;;12.23;2.10;;;;;;;3.02;100.00;100929.38;5032769;28;20052;-82
2023/04/14 01:47:48;;;;;;;8.95;1.52;;;;;;;2.98;100.00;100928.66;5032961;28;20447;-82
2023/04/14 01:50:15;;;;;;;12.85;2.00;;;;;;;2.97;100.00;100928.75;5031460;28;20033;-82
2023/04/14 01:52:46;;;;;;;12.10;1.98;;;;;;;2.99;100.00;100930.38;5030844;28;20045;-81
2023/04/14 01:55:16;;;;;;;12.77;2.67;;;;;;;3.05;100.00;100933.59;5033373;28;20044;-82
2023/04/14 01:57:44;;;;;;;13.52;2.58;;;;;;;3.14;100.00;100933.91;5033040;28;20037;-83
2023/04/14 02:00:11;;;;;;;9.05;1.67;;;;;;;3.14;100.00;100933.91;5032705;28;20038;-82
2023/04/14 02:02:38;;;;;;;8.18;2.10;;;;;;;3.13;100.00;100941.88;5032640;28;20034;-83
2023/04/14 02:05:07;;;;;;;15.38;2.08;;;;;;;3.10;100.00;100940.25;5033232;28;20359;-82
2023/04/14 02:07:34;;;;;;;11.93;1.70;;;;;;;3.10;100.00;100939.44;5033169;28;20037;-82
2023/04/14 02:10:00;;;;;;;18.60;2.63;;;;;;;3.12;100.00;100941.03;5032493;28;20033;-82
2023/04/14 02:12:28;;;;;;;21.25;2.38;;;;;;;3.19;100.00;100941.53;5032314;28;20065;-83
2023/04/14 02:14:54;;;;;;;7.75;1.83;;;;;;;3.23;100.00;100929.91;5032369;28;20126;-82
2023/04/14 02:17:20;;;;;;;18.67;2.45;;;;;;;3.24;100.00;100941.25;5030683;28;20029;-84
2023/04/14 02:19:46;;;;;;;4.15;1.67;;;;;;;3.22;100.00;100935.25;5031649;28;20029;-83
2023/04/14 02:22:12;;;;;;;9.35;1.67;;;;;;;3.22;100.00;100943.97;5031937;28;20077;-83
2023/04/14 02:24:38;;;;;;;8.70;2.50;;;;;;;3.22;100.00;100943.13;5030551;28;20316;-82
2023/04/14 02:27:10;;;;;;;13.13;2.67;;;;;;;3.18;100.00;100940.69;5032175;28;20475;-82
2023/04/14 02:29:39;;;;;;;8.55;2.50;;;;;;;3.15;100.00;100945.25;5032038;28;20034;-84
2023/04/14 02:32:10;;;;;;;17.67;3.38;;;;;;;3.15;100.00;100938.25;5031793;28;20116;-84
2023/04/14 02:34:49;;;;;;;8.40;3.10;;;;;;;3.15;100.00;100948.75;4986411;28;1300897;-83
2023/04/14 02:37:23;;;;;;;14.40;3.60;;;;;;;3.14;100.00;100944.41;5033232;28;20060;-82
2023/04/14 02:39:55;;;;;;;9.90;2.92;;;;;;;3.12;100.00;100948.94;5031624;28;20030;-81
2023/04/14 02:42:25;;;;;;;17.10;3.58;;;;;;;3.08;100.00;100952.66;5032814;28;20030;-82
2023/04/14 02:44:59;;;;;;;12.07;3.20;;;;;;;3.09;100.00;100950.88;5031603;28;20056;-82
2023/04/14 02:47:55;;;;;;;14.00;3.35;;;;;;;3.05;100.00;100950.22;5033232;28;20096;-81
2023/04/14 02:50:23;;;;;;;15.00;3.85;;;;;;;3.01;100.00;100948.69;5031948;28;20120;-83
2023/04/14 02:52:51;;;;;;;19.15;4.50;;;;;;;3.00;100.00;100950.47;5031280;28;20109;-82
2023/04/14 02:55:19;;;;;;;13.10;3.17;;;;;;;2.95;100.00;100959.56;5031009;28;20053;-83
2023/04/14 02:57:47;;;;;;;14.32;3.55;;;;;;;2.90;100.00;100954.56;5032930;28;20026;-83
2023/04/14 03:00:14;;;;;;;11.90;2.70;;;;;;;2.83;100.00;100956.69;5033217;28;20204;-83
2023/04/14 03:02:42;;;;;;;13.93;3.40;;;;;;;2.77;100.00;100948.31;5032062;28;20029;-82
2023/04/14 03:05:08;;;;;;;14.55;2.83;;;;;;;2.68;100.00;100947.03;5042135;28;20060;-82
2023/04/14 03:07:35;;;;;;;12.00;3.17;;;;;;;2.64;100.00;100953.38;5042496;28;20041;-82
2023/04/14 03:10:01;;;;;;;11.35;2.90;;;;;;;2.59;100.00;100942.28;5033074;28;20029;-81
2023/04/14 03:12:28;;;;;;;14.02;3.25;;;;;;;2.50;100.00;100942.81;5035471;28;20116;-82
2023/04/14 03:14:54;;;;;;;13.90;2.83;;;;;;;2.41;100.00;100949.41;5045819;28;20036;-82
2023/04/14 03:17:21;;;;;;;7.88;2.38;;;;;;;2.33;100.00;100944.59;5044784;28;20108;-82
2023/04/14 03:19:48;;;;;;;11.48;2.50;;;;;;;2.24;100.00;100948.53;5033189;28;20053;-81
2023/04/14 03:22:18;;;;;;;13.20;3.20;;;;;;;2.16;100.00;100944.63;5032412;28;20037;-82
2023/04/14 03:24:44;;;;;;;11.45;2.22;;;;;;;2.07;100.00;100953.84;5032661;28;20033;-82
2023/04/14 03:27:15;;;;;;;11.30;2.67;;;;;;;1.97;100.00;100953.50;5032246;28;20109;-82
2023/04/14 03:29:45;;;;;;;10.70;2.83;;;;;;;1.96;100.00;100951.78;5031795;28;20101;-82
2023/04/14 03:32:13;;;;;;;10.95;2.35;;;;;;;1.92;100.00;100955.50;5032367;28;20449;-82
2023/04/14 03:34:45;;;;;;;7.75;2.03;;;;;;;1.90;100.00;100958.22;5031978;28;20052;-83
2023/04/14 03:37:15;;;;;;;10.45;2.75;;;;;;;1.89;100.00;100953.03;5032167;28;20029;-82
2023/04/14 03:39:42;;;;;;;15.27;3.05;;;;;;;1.88;100.00;100951.34;5030151;28;20083;-82
2023/04/14 03:42:10;;;;;;;11.00;2.35;;;;;;;1.87;100.00;100953.13;5033321;28;20104;-82
2023/04/14 03:44:37;;;;;;;12.00;2.70;;;;;;;1.86;100.00;100963.69;5033215;28;20041;-81
2023/04/14 03:47:06;;;;;;;7.57;2.20;;;;;;;1.86;100.00;100963.69;5034219;28;20029;-81
2023/04/14 03:49:35;;;;;;;9.07;2.38;;;;;;;1.85;100.00;100965.47;5036009;28;20124;-81
2023/04/14 03:52:04;;;;;;;7.75;2.03;;;;;;;1.86;100.00;100966.31;5033501;28;20068;-81
2023/04/14 03:54:31;;;;;;;9.98;2.47;;;;;;;1.83;100.00;100966.47;5029754;28;20029;-82
2023/04/14 03:56:59;;;;;;;11.75;2.78;;;;;;;1.83;100.00;100959.44;5031480;28;20037;-81
2023/04/14 03:59:26;;;;;;;10.07;2.60;;;;;;;1.86;100.00;100967.16;5030482;28;20035;-81
2023/04/14 04:01:53;;;;;;;7.03;2.90;;;;;;;1.84;100.00;100971.66;5030585;28;20029;-80
2023/04/14 04:04:21;;;;;;;9.98;2.85;;;;;;;1.81;100.00;100963.06;5029281;28;20120;-80
2023/04/14 04:06:48;;;;;;;15.07;3.13;;;;;;;1.80;100.00;100964.03;5030669;28;20072;-82
2023/04/14 04:09:16;;;;;;;9.55;2.72;;;;;;;1.76;100.00;100968.56;5030527;28;20029;-80
2023/04/14 04:11:44;;;;;;;17.83;3.28;;;;;;;1.73;100.00;100964.34;5030738;28;20029;-79
2023/04/14 04:14:12;;;;;;;11.68;3.00;;;;;;;1.70;100.00;100969.75;5030617;28;20067;-80
2023/04/14 04:16:40;;;;;;;10.10;3.60;;;;;;;1.64;100.00;100962.16;5030420;28;20026;-80
2023/04/14 04:19:06;;;;;;;10.70;3.38;;;;;;;1.61;100.00;100967.56;5030811;28;20029;-80
2023/04/14 04:21:34;;;;;;;14.20;3.55;;;;;;;1.63;100.00;100972.75;5030594;28;20471;-80
2023/04/14 04:24:01;;;;;;;9.23;3.20;;;;;;;1.61;100.00;100975.44;5029377;28;20033;-80
2023/04/14 04:26:26;;;;;;;8.98;3.50;;;;;;;1.63;100.00;100976.22;5030843;28;20127;-81
2023/04/14 04:28:56;;;;;;;17.73;3.78;;;;;;;1.61;100.00;100978.06;5030603;28;20041;-80
2023/04/14 04:31:22;;;;;;;20.63;5.32;;;;;;;1.65;100.00;100977.00;5030903;28;20405;-81
2023/04/14 04:33:49;;;;;;;18.55;5.75;;;;;;;1.68;100.00;100982.06;5030633;28;20030;-81
2023/04/14 04:36:15;;;;;;;16.23;5.13;;;;;;;1.69;100.00;100989.03;5031110;28;20049;-81
2023/04/14 04:38:41;;;;;;;12.30;4.30;;;;;;;1.67;100.00;100982.16;5029140;28;20146;-81
2023/04/14 04:41:07;;;;;;;18.55;5.25;;;;;;;1.62;100.00;100982.38;5030798;28;20045;-81
2023/04/14 04:43:33;;;;;;;17.48;5.07;;;;;;;1.58;100.00;100980.84;5030323;28;20103;-81
2023/04/14 04:46:04;;;;;;;11.98;4.60;;;;;;;1.51;100.00;100982.09;5030510;28;20063;-82
2023/04/14 04:48:29;;;;;;;16.90;5.43;;;;;;;1.45;100.00;100977.13;5030168;28;20103;-81
2023/04/14 04:50:54;;;;;;;12.77;4.90;;;;;;;1.46;100.00;100989.34;5030507;28;20049;-81
2023/04/14 04:53:20;;;;;;;21.00;5.20;;;;;;;1.46;100.00;100977.06;5029993;28;20120;-81
2023/04/14 04:55:45;;;;;;;12.15;4.32;;;;;;;1.46;100.00;100986.72;5029986;28;20117;-80
2023/04/14 04:58:10;;;;;;;18.35;5.78;;;;;;;1.45;100.00;100987.63;5030479;28;20446;-81
2023/04/14 05:00:36;;;;;;;13.43;5.53;;;;;;;1.45;100.00;100983.25;5028920;28;20069;-81
2023/04/14 05:03:01;;;;;;;13.25;4.90;;;;;;;1.46;100.00;100984.09;5030470;28;20030;-81
2023/04/14 05:05:27;;;;;;;16.50;5.53;;;;;;;1.44;100.00;100980.72;5030224;28;20048;-82
2023/04/14 05:07:52;;;;;;;15.50;5.93;;;;;;;1.44;100.00;100980.72;5030327;28;20029;-81
2023/04/14 05:10:18;;;;;;;17.85;7.57;;;;;;;1.41;100.00;100985.16;5030350;28;20034;-81
2023/04/14 05:12:43;;;;;;;23.50;8.27;;;;;;;1.40;100.00;100977.38;5030438;28;20034;-81
2023/04/14 05:15:09;;;;;;;23.55;6.75;;;;;;;1.40;100.00;100986.09;5030542;28;20180;-79
2023/04/14 05:17:34;;;;;;;29.65;8.20;;;;;;;1.48;100.00;100982.22;5030423;28;20080;-81
2023/04/14 05:20:00;;;;;;;30.92;8.00;;;;;;;1.58;100.00;100991.34;5030515;28;20040;-80
2023/04/14 05:22:26;;;;;;;21.25;7.07;;;;;;;1.64;100.00;100996.28;5031167;28;20029;-80
2023/04/14 05:24:51;;;;;;;21.40;6.85;;;;;;;1.70;100.00;100997.75;5030642;28;20486;-81
2023/04/14 05:27:17;;;;;;;20.75;6.47;;;;;;;1.76;100.00;101000.91;5030594;28;20033;-81
2023/04/14 05:29:42;;;;;;;20.50;7.28;;;;;;;1.83;100.00;100996.19;5032895;28;20195;-81
2023/04/14 05:32:09;;;;;;;26.67;7.93;;;;;;;1.90;100.00;101002.81;5033588;28;20355;-80
2023/04/14 05:34:35;;;;;;;24.33;7.75;;;;;;;1.97;100.00;101000.75;5033153;28;20099;-80
2023/04/14 05:37:00;;;;;;;29.77;9.20;;;;;;;2.07;100.00;101001.09;5033436;28;20029;-80
2023/04/14 05:39:25;;;;;;;33.58;8.68;;;;;;;2.13;100.00;101013.88;5033786;28;20046;-80
2023/04/14 05:41:52;;;;;;;34.63;8.43;;;;;;;2.23;100.00;101015.09;5033331;28;20036;-80
2023/04/14 05:44:17;;;;;;;18.13;7.05;;;;;;;2.29;100.00;101020.03;5033263;28;20144;-80
2023/04/14 05:46:43;;;;;;;24.60;8.40;;;;;;;2.36;100.00;101020.56;5033761;28;20124;-80
2023/04/14 05:49:08;;;;;;;26.88;8.10;;;;;;;2.43;100.00;101010.56;5033150;28;20101;-80
2023/04/14 05:51:35;;;;;;;29.27;8.63;;;;;;;2.50;100.00;101019.81;5031895;28;20037;-81
2023/04/14 05:54:00;;;;;;;26.90;8.82;;;;;;;2.59;100.00;101019.31;5033386;28;20111;-80
2023/04/14 05:56:26;;;;;;;33.35;8.98;;;;;;;2.71;100.00;101019.59;5033181;28;20423;-80
2023/04/14 05:58:54;;;;;;;26.73;8.43;;;;;;;2.80;100.00;101019.09;5033100;28;20538;-81
2023/04/14 06:01:19;;;;;;;30.98;9.25;;;;;;;2.88;100.00;101019.53;5031536;28;20045;-80
2023/04/14 06:03:45;;;;;;;38.72;10.75;;;;;;;2.96;100.00;101022.56;5033362;28;20030;-80
2023/04/14 06:06:10;;;;;;;27.88;8.55;;;;;;;3.06;100.00;101016.78;5032873;28;20471;-80
2023/04/14 06:08:35;;;;;;;35.67;9.65;;;;;;;3.14;100.00;101014.56;5031660;28;20022;-79
2023/04/14 06:11:02;;;;;;;31.77;8.20;;;;;;;3.27;100.00;101019.97;5033147;28;20036;-81
2023/04/14 06:13:27;;;;;;;33.33;8.52;;;;;;;3.35;100.00;101010.72;5032428;28;20037;-78
2023/04/14 06:15:54;;;;;;;29.02;8.55;;;;;;;3.46;100.00;101015.38;5032922;28;20088;-76
2023/04/14 06:18:21;;;;;;;33.85;8.63;;;;;;;3.57;100.00;101019.13;5032511;28;20037;-79
2023/04/14 06:20:47;;;;;;;27.95;8.45;;;;;;;3.68;100.00;101016.75;5032711;28;20189;-78
2023/04/14 06:23:12;;;;;;;27.67;8.85;;;;;;;3.80;100.00;101018.63;5031354;28;20112;-78
2023/04/14 06:25:38;;;;;;;30.75;8.73;;;;;;;3.92;100.00;101027.59;5030639;28;20074;-80
2023/04/14 06:28:03;;;;;;;28.98;8.35;;;;;;;4.05;100.00;101015.38;5014717;28;20095;-80
2023/04/14 06:30:31;;;;;;;24.17;7.78;;;;;;;4.17;100.00;101010.34;5032827;28;20498;-79
2023/04/14 06:32:57;;;;;;;24.25;8.25;;;;;;;4.29;100.00;101014.00;5032321;28;20102;-78
2023/04/14 06:35:22;;;;;;;30.98;9.40;;;;;;;4.39;100.00;101010.69;5032512;28;20162;-81
2023/04/14 06:37:47;;;;;;;26.45;8.65;;;;;;;4.50;100.00;101009.19;5032332;28;20101;-81
2023/04/14 06:40:13;;;;;;;24.00;7.80;;;;;;;4.63;100.00;101007.47;5032301;28;20432;-79
2023/04/14 06:42:38;;;;;;;29.55;8.18;;;;;;;4.74;100.00;101004.16;5033023;28;20033;-81
2023/04/14 06:45:04;;;;;;;25.60;8.68;;;;;;;4.88;100.00;101006.78;5032412;28;20171;-83
2023/04/14 06:47:29;;;;;;;37.92;9.10;;;;;;;5.01;100.00;101000.72;5031596;28;20037;-80
2023/04/14 06:49:55;;;;;;;21.48;8.68;;;;;;;5.13;100.00;101002.53;5032232;28;20036;-79
2023/04/14 06:52:21;;;;;;;26.20;9.23;;;;;;;5.23;100.00;100997.53;5030859;28;20462;-80
2023/04/14 06:54:46;;;;;;;28.30;8.57;;;;;;;5.35;100.00;100999.34;5032378;28;20037;-80
2023/04/14 06:57:11;;;;;;;25.08;8.52;;;;;;;5.51;100.00;100999.19;5030985;28;20036;-80
2023/04/14 06:59:37;;;;;;;28.05;8.68;;;;;;;5.62;100.00;100996.66;5014778;28;20037;-80
2023/04/14 07:02:03;;;;;;;35.60;8.27;;;;;;;5.77;100.00;101000.06;5032555;28;20037;-79
2023/04/14 07:04:29;;;;;;;21.35;7.18;;;;;;;5.93;100.00;100996.38;5019219;28;20428;-80
2023/04/14 07:06:59;;;;;;;24.90;7.68;;;;;;;6.10;100.00;100993.44;5034025;28;20033;-78
2023/04/14 07:09:25;;;;;;;18.33;6.72;;;;;;;6.33;100.00;100993.66;5032905;28;20044;-81
2023/04/14 07:11:52;;;;;;;22.20;6.97;;;;;;;6.49;100.00;101003.97;5033629;28;20112;-81
2023/04/14 07:14:17;;;;;;;19.08;6.75;;;;;;;6.66;100.00;100997.50;5033450;28;20037;-80
2023/04/14 07:16:42;;;;;;;19.70;7.15;;;;;;;6.84;100.00;101004.09;5034731;28;20562;-79
2023/04/14 07:19:08;;;;;;;19.33;6.28;;;;;;;7.05;100.00;100996.41;5031513;28;20033;-79
2023/04/14 07:21:33;;;;;;;17.02;6.15;;;;;;;7.28;100.00;100993.84;5030191;28;20073;-81
2023/04/14 07:23:58;;;;;;;24.90;6.32;;;;;;;7.48;100.00;100987.09;5031521;28;20033;-79
2023/04/14 07:26:24;;;;;;;15.82;5.65;;;;;;;7.50;100.00;100986.97;5031670;28;20029;-83
2023/04/14 07:28:50;;;;;;;16.55;5.53;;;;;;;7.61;100.00;100989.63;5031907;28;20297;-81
2023/04/14 07:31:15;;;;;;;12.07;4.90;;;;;;;7.69;100.00;100987.25;5031226;28;20167;-81
2023/04/14 07:33:41;;;;;;;12.15;4.60;;;;;;;7.79;100.00;100983.91;5029828;28;20056;-81
2023/04/14 07:36:08;;;;;;;12.27;4.90;;;;;;;7.88;100.00;100985.84;5030750;28;20091;-84
2023/04/14 07:38:33;;;;;;;12.00;4.30;;;;;;;7.89;100.00;100975.13;5031067;28;20116;-82
2023/04/14 07:41:03;;;;;;;17.30;4.85;;;;;;;7.82;100.00;100979.22;5031236;28;20071;-82
2023/04/14 07:43:33;;;;;;;17.60;5.18;;;;;;;7.83;100.00;100978.25;5031276;28;20121;-84
2023/04/14 07:46:03;;;;;;;12.90;4.50;;;;;;;7.89;100.00;100976.94;5030374;28;20029;-83
2023/04/14 07:48:28;;;;;;;24.08;4.60;;;;;;;7.97;100.00;100979.00;5030978;28;20479;-83
2023/04/14 07:50:54;;;;;;;11.25;3.92;;;;;;;8.00;100.00;100974.31;5029582;28;20061;-80
2023/04/14 07:53:19;;;;;;;13.38;4.50;;;;;;;8.06;100.00;100972.97;5031417;28;20037;-85
2023/04/14 07:55:45;;;;;;;13.80;4.07;;;;;;;8.17;100.00;100970.34;5031642;28;20037;-86
2023/04/14 07:58:11;;;;;;;10.68;3.53;;;;;;;8.37;100.00;100971.41;5029507;28;20494;-83
2023/04/14 08:00:37;;;;;;;12.95;4.15;;;;;;;8.69;100.00;100973.34;5029577;28;20171;-83
2023/04/14 08:03:03;;;;;;;12.88;3.78;;;;;;;9.09;100.00;100967.47;5029432;28;20068;-84
2023/04/14 08:05:28;;;;;;;15.88;3.80;;;;;;;9.49;100.00;100973.91;5031383;28;20076;-85
2023/04/14 08:07:54;;;;;;;11.95;3.78;;;;;;;9.85;100.00;100969.97;5030838;28;20026;-84
2023/04/14 08:10:21;;;;;;;8.98;3.35;;;;;;;10.20;100.00;100963.41;5031146;28;20048;-82
2023/04/14 08:12:47;;;;;;;8.75;2.92;;;;;;;10.35;100.00;100969.25;5030845;28;20046;-84
2023/04/14 08:15:12;;;;;;;7.32;3.05;;;;;;;10.54;100.00;100963.16;5030771;28;20049;-81
2023/04/14 08:17:38;;;;;;;8.73;2.90;;;;;;;10.86;100.00;100970.06;5031221;28;20452;-82
2023/04/14 08:20:04;;;;;;;5.20;2.17;;;;;;;11.16;100.00;100968.28;5012912;28;20390;-83
2023/04/14 08:22:29;;;;;;;9.25;2.30;;;;;;;11.46;100.00;100963.78;5029185;28;20094;-82
2023/04/14 08:24:54;;;;;;;8.70;2.22;;;;;;;11.87;100.00;100969.75;5029125;28;20033;-83
2023/04/14 08:27:20;;;;;;;11.00;2.60;;;;;;;12.12;100.00;100967.44;5029437;28;20105;-83
2023/04/14 08:29:45;;;;;;;7.55;2.53;;;;;;;12.42;100.00;100966.34;5031261;28;20034;-83
2023/04/14 08:32:11;;;;;;;8.27;2.53;;;;;;;12.37;100.00;100971.28;5029288;28;20033;-83
2023/04/14 08:34:36;;;;;;;7.88;2.13;;;;;;;12.24;100.00;100971.63;5030768;28;20471;-82
2023/04/14 08:37:02;;;;;;;5.15;2.30;;;;;;;12.18;100.00;100961.50;5031535;28;20497;-82
2023/04/14 08:39:27;;;;;;;7.03;2.17;;;;;;;12.42;100.00;100957.47;5031866;28;20326;-84
2023/04/14 08:41:55;;;;;;;6.63;2.40;;;;;;;12.65;95.43;100966.78;5032938;28;20380;-82
2023/04/14 08:44:21;;;;;;;8.80;1.70;;;;;;;12.40;88.07;100962.13;5033533;28;20048;-83
2023/04/14 08:46:50;;;;;;;3.78;1.42;;;;;;;12.28;88.82;100959.66;5031500;28;20128;-84
2023/04/14 08:49:26;;;;;;;4.75;1.48;;;;;;;12.17;93.04;100962.53;5030439;28;20029;-83
2023/04/14 08:51:53;;;;;;;5.68;1.48;;;;;;;12.29;82.92;100953.34;5030811;28;20033;-85
2023/04/14 08:54:20;;;;;;;3.88;1.25;;;;;;;12.55;79.30;100960.66;5028974;28;20453;-87
2023/04/14 08:56:46;;;;;;;4.10;1.17;;;;;;;12.26;75.71;100958.16;5030317;28;20490;-81
2023/04/14 08:59:11;;;;;;;4.90;1.05;;;;;;;12.51;82.40;100956.63;5012906;28;20033;-84
2023/04/14 09:01:38;;;;;;;11.70;1.67;;;;;;;13.25;69.84;100949.34;5030803;28;20037;-81
2023/04/14 09:04:04;;;;;;;7.25;1.60;;;;;;;14.41;66.28;100953.63;5032992;28;20049;-83
2023/04/14 09:06:31;;;;;;;4.82;1.75;;;;;;;15.63;60.39;100957.50;5032895;28;20029;-83
2023/04/14 09:08:59;;;;;;;5.32;1.70;;;;;;;15.64;57.32;100951.09;5034600;28;20033;-82
2023/04/14 09:11:24;;;;;;;3.55;1.50;;;;;;;16.91;55.11;100945.81;5034613;28;20033;-82
2023/04/14 09:13:52;;;;;;;9.10;1.75;;;;;;;16.33;51.77;100941.72;5034504;28;20045;-81
2023/04/14 09:16:17;;;;;;;3.88;1.55;;;;;;;16.50;52.63;100948.69;5033093;28;20053;-84
2023/04/14 09:18:44;;;;;;;7.13;2.05;;;;;;;17.20;52.08;100944.25;5016008;28;20082;-84
2023/04/14 09:21:10;;;;;;;4.28;1.60;;;;;;;17.61;48.39;100945.75;5033811;28;20033;-84
2023/04/14 09:23:36;;;;;;;4.20;1.58;;;;;;;17.91;46.92;100935.88;5016304;28;20499;-83
2023/04/14 09:26:02;;;;;;;5.55;1.33;;;;;;;18.37;44.54;100942.91;5033838;28;20116;-82
2023/04/14 09:28:27;;;;;;;6.45;1.60;;;;;;;17.50;45.39;100955.09;5034024;28;20048;-81
2023/04/14 09:30:55;;;;;;;9.68;1.90;;;;;;;17.33;47.51;100945.50;5033592;28;20041;-83
2023/04/14 09:33:22;;;;;;;5.32;1.70;;;;;;;17.52;45.91;100939.59;5032114;28;20553;-78
2023/04/14 09:35:49;;;;;;;3.00;1.33;;;;;;;17.38;46.57;100933.19;5033706;28;20057;-77
2023/04/14 09:38:31;;;;;;;4.88;1.60;;;;;;;16.11;47.70;100944.16;5033492;28;20068;-83
2023/04/14 09:40:56;;;;;;;4.72;1.58;;;;;;;15.54;50.71;100936.19;5033911;28;20056;-84
2023/04/14 09:43:26;;;;;;;4.13;1.35;;;;;;;15.92;50.47;100923.94;5034144;28;20462;-82
2023/04/14 09:45:52;;;;;;;6.80;1.90;;;;;;;16.33;51.29;100931.84;5033485;28;20049;-83
2023/04/14 09:48:19;;;;;;;3.35;1.45;;;;;;;17.35;47.16;100930.88;5033020;28;20083;-81
2023/04/14 09:51:11;;;;;;;4.80;1.33;;;;;;;17.85;46.50;100930.38;5032084;28;20044;-85
2023/04/14 09:53:41;;;;;;;5.03;1.95;;;;;;;18.50;45.08;100926.09;5032323;28;20072;-84
2023/04/14 09:56:09;;;;;;;5.57;1.40;;;;;;;19.08;43.26;100930.66;5015972;28;20041;-80
2023/04/14 09:58:37;;;;;;;3.03;1.30;;;;;;;19.34;42.43;100924.69;5033230;28;20037;-75
2023/04/14 10:01:04;;;;;;;4.65;1.73;;;;;;;18.90;40.96;100921.19;5032983;28;20029;-76
2023/04/14 10:03:38;;;;;;;2.88;1.10;;;;;;;18.91;40.35;100916.59;5033056;28;20037;-76
2023/04/14 10:06:23;;;;;;;4.13;1.30;;;;;;;19.15;41.93;100920.78;5032808;28;20030;-76
2023/04/14 10:08:51;;;;;;;4.60;1.60;;;;;;;19.08;40.45;100917.19;5033072;28;20091;-73
2023/04/14 10:11:22;;;;;;;5.15;1.75;;;;;;;19.26;40.82;100914.88;5031374;28;20041;-77
2023/04/14 10:13:48;;;;;;;;;;;;;;;18.31;40.93;100909.50;5033200;28;20130;-75
2023/04/14 10:16:14;;;;;;;4.57;1.55;;;;;;;17.33;44.97;100915.91;5032660;28;19908;-77
2023/04/14 10:18:40;;;;;;;5.22;1.88;;;;;;;16.53;46.37;100915.28;5033206;28;20175;-76
2023/04/14 10:21:06;;;;;;;10.90;2.08;;;;;;;15.94;49.76;100923.75;5030669;28;20542;-75
2023/04/14 10:23:35;;;;;;;7.20;1.98;;;;;;;17.14;48.50;100915.41;5032244;28;20102;-77
2023/04/14 10:26:01;;;;;;;4.60;2.17;;;;;;;17.60;43.95;100917.16;5030802;28;20073;-76
2023/04/14 10:28:29;;;;;;;5.35;2.33;;;;;;;18.61;43.05;100908.59;5032599;28;20044;-72
2023/04/14 10:30:56;;;;;;;3.55;1.77;;;;;;;19.40;42.85;100909.56;5033032;28;20025;-78
2023/04/14 10:33:22;;;;;;;7.55;2.20;;;;;;;20.04;41.69;100908.56;5032546;28;20045;-74
2023/04/14 10:35:56;;;;;;;4.35;1.90;;;;;;;19.74;40.19;100909.59;5030772;28;20444;-77
2023/04/14 10:38:21;;;;;;;4.82;2.08;;;;;;;20.35;41.91;100910.78;5031038;28;20067;-74
2023/04/14 10:40:50;;;;;;;5.95;2.50;;;;;;;19.29;41.71;100911.78;5031324;28;20053;-79
2023/04/14 10:43:15;;;;;;;6.78;2.30;;;;;;;18.32;45.79;100908.47;5032256;28;20121;-78
2023/04/14 10:45:57;;;;;;;11.63;2.58;;;;;;;18.44;46.87;100903.44;5032536;28;20379;-78
2023/04/14 10:48:43;;;;;;;6.18;2.20;;;;;;;19.26;43.27;100895.97;5032148;28;20530;-75
2023/04/14 10:51:09;;;;;;;7.53;2.33;;;;;;;20.57;43.17;100897.13;5031504;28;20049;-78
2023/04/14 10:53:54;;;;;;;4.25;1.90;;;;;;;20.35;40.95;100904.56;5030506;28;20036;-77
2023/04/14 10:56:22;;;;;;;5.53;1.60;;;;;;;18.83;41.51;100902.19;5032018;28;20124;-78
2023/04/14 10:58:55;;;;;;;5.70;1.80;;;;;;;16.98;42.84;100894.03;5031601;28;20459;-73
2023/04/14 11:01:40;;;;;;;7.47;1.98;;;;;;;16.96;45.61;100894.22;5031562;28;20499;-74
2023/04/14 11:04:18;;;;;;;5.53;2.00;;;;;;;18.50;44.47;100883.00;5031812;28;20136;-74
2023/04/14 11:06:49;;;;;;;4.32;1.42;;;;;;;19.52;40.88;100895.34;5032154;28;20033;-76
2023/04/14 11:09:30;;;;;;;4.70;1.77;;;;;;;18.61;42.33;100887.03;5031852;28;20108;-75
2023/04/14 11:11:58;;;;;;;5.10;1.80;;;;;;;17.01;44.36;100891.00;5032241;28;20037;-79
2023/04/14 11:14:26;;;;;;;3.78;1.45;;;;;;;17.05;45.66;100885.06;5031804;28;20037;-78
2023/04/14 11:16:57;;;;;;;6.82;1.70;;;;;;;17.14;47.44;100885.84;5032607;28;20126;-80
2023/04/14 11:19:22;;;;;;;6.53;1.98;;;;;;;16.84;44.25;100884.84;5038947;28;20029;-81
2023/04/14 11:21:49;;;;;;;3.90;1.58;;;;;;;16.44;46.68;100889.50;5039250;28;20033;-75